createdAt,value
2022-12-23T00:01:08.094Z,8.34
2022-12-23T00:03:35.147Z,8.33
2022-12-23T00:06:07.540Z,8.31
2022-12-23T00:08:34.577Z,8.29
2022-12-23T00:11:01.216Z,8.27
2022-12-23T00:13:27.657Z,8.25
2022-12-23T00:16:20.566Z,8.24
2022-12-23T00:18:47.105Z,8.21
2022-12-23T00:21:16.540Z,8.14
2022-12-23T00:23:45.900Z,8.18
2022-12-23T00:26:16.584Z,8.19
2022-12-23T00:28:43.613Z,8.17
2022-12-23T00:31:12.955Z,8.16
2022-12-23T00:33:44.618Z,8.13
2022-12-23T00:36:21.404Z,8.13
2022-12-23T00:38:48.353Z,8.10
2022-12-23T00:41:18.807Z,8.09
2022-12-23T00:43:45.243Z,8.08
2022-12-23T00:46:11.794Z,8.07
2022-12-23T00:48:38.290Z,8.05
2022-12-23T00:51:04.916Z,8.03
2022-12-23T00:53:31.461Z,8.05
2022-12-23T00:55:58.005Z,8.05
2022-12-23T00:58:24.496Z,7.97
2022-12-23T01:00:53.957Z,8.00
2022-12-23T01:03:20.457Z,8.00
2022-12-23T01:05:46.961Z,7.99
2022-12-23T01:08:13.441Z,7.98
2022-12-23T01:10:41.073Z,7.97
2022-12-23T01:13:07.656Z,7.96
2022-12-23T01:15:34.272Z,7.95
2022-12-23T01:18:00.736Z,7.94
2022-12-23T01:20:27.169Z,7.93
2022-12-23T01:22:53.682Z,7.93
2022-12-23T01:25:20.122Z,7.91
2022-12-23T01:27:46.580Z,7.90
2022-12-23T01:30:13.162Z,7.91
2022-12-23T01:32:39.614Z,7.90
2022-12-23T01:35:06.252Z,7.85
2022-12-23T01:37:33.110Z,7.88
2022-12-23T01:39:59.525Z,7.88
2022-12-23T01:42:25.984Z,7.88
2022-12-23T01:45:17.964Z,7.86
2022-12-23T01:47:56.593Z,7.81
2022-12-23T01:50:23.078Z,7.88
2022-12-23T01:53:07.177Z,7.86
2022-12-23T01:55:55.807Z,7.86
2022-12-23T01:58:27.107Z,7.92
2022-12-23T02:00:56.410Z,7.84
2022-12-23T02:03:22.987Z,7.93
2022-12-23T02:05:51.416Z,7.90
2022-12-23T02:08:18.676Z,7.94
2022-12-23T02:11:26.894Z,7.91
2022-12-23T02:14:22.375Z,7.92
2022-12-23T02:16:59.283Z,7.90
2022-12-23T02:19:47.807Z,7.91
2022-12-23T02:22:32.093Z,7.91
2022-12-23T02:25:19.692Z,7.91
2022-12-23T02:28:33.671Z,7.87
2022-12-23T02:31:25.177Z,7.89
2022-12-23T02:34:01.241Z,7.93
2022-12-23T02:36:38.258Z,7.94
2022-12-23T02:39:21.154Z,7.94
2022-12-23T02:41:58.989Z,7.95
2022-12-23T02:44:44.832Z,7.91
2022-12-23T02:47:17.862Z,7.92
2022-12-23T02:49:49.660Z,7.89
2022-12-23T02:52:20.711Z,7.91
2022-12-23T02:54:52.476Z,7.93
2022-12-23T02:57:29.434Z,7.92
2022-12-23T02:59:57.624Z,7.90
2022-12-23T03:02:24.346Z,7.87
2022-12-23T03:04:50.953Z,7.84
2022-12-23T03:07:31.234Z,7.74
2022-12-23T03:10:13.593Z,7.70
2022-12-23T03:12:57.030Z,7.72
2022-12-23T03:15:48.500Z,7.70
2022-12-23T03:18:14.956Z,7.68
2022-12-23T03:20:56.803Z,7.60
2022-12-23T03:23:35.674Z,7.62
2022-12-23T03:26:14.422Z,7.59
2022-12-23T03:28:57.290Z,7.53
2022-12-23T03:31:27.273Z,7.57
2022-12-23T03:34:09.520Z,7.55
2022-12-23T03:36:45.547Z,7.55
2022-12-23T03:39:19.023Z,7.52
2022-12-23T03:41:53.954Z,7.47
2022-12-23T03:44:30.448Z,7.49
2022-12-23T03:47:09.607Z,7.50
2022-12-23T03:49:42.743Z,7.44
2022-12-23T03:52:21.025Z,7.45
2022-12-23T03:54:56.947Z,7.49
2022-12-23T03:57:32.090Z,7.50
2022-12-23T03:59:58.661Z,7.50
2022-12-23T04:03:09.287Z,7.49
2022-12-23T04:05:40.014Z,7.48
2022-12-23T04:08:13.942Z,7.47
2022-12-23T04:10:40.667Z,7.47
2022-12-23T04:13:07.489Z,7.44
2022-12-23T04:15:39.062Z,7.36
2022-12-23T04:18:05.645Z,7.42
2022-12-23T04:20:32.115Z,7.42
2022-12-23T04:22:58.650Z,7.36
2022-12-23T04:25:25.087Z,7.38
2022-12-23T04:27:51.620Z,7.38
2022-12-23T04:30:18.132Z,7.35
2022-12-23T04:32:44.963Z,7.34
2022-12-23T04:35:12.071Z,7.33
2022-12-23T04:37:38.969Z,7.31
2022-12-23T04:40:06.793Z,7.30
2022-12-23T04:42:33.334Z,7.28
2022-12-23T04:44:59.777Z,7.26
2022-12-23T04:47:26.988Z,7.26
2022-12-23T04:49:53.591Z,7.25
2022-12-23T04:52:20.551Z,7.24
2022-12-23T04:54:47.030Z,7.24
2022-12-23T04:57:13.929Z,7.23
2022-12-23T04:59:40.337Z,7.21
2022-12-23T05:02:07.840Z,7.18
2022-12-23T05:04:34.737Z,7.19
2022-12-23T05:07:01.193Z,7.18
2022-12-23T05:09:27.682Z,7.16
2022-12-23T05:11:54.523Z,7.12
2022-12-23T05:14:21.061Z,7.12
2022-12-23T05:16:47.701Z,7.06
2022-12-23T05:19:14.269Z,7.05
2022-12-23T05:21:40.732Z,7.05
2022-12-23T05:24:07.325Z,7.02
2022-12-23T05:26:33.849Z,7.03
2022-12-23T05:29:00.330Z,7.01
2022-12-23T05:31:26.842Z,6.98
2022-12-23T05:33:53.348Z,6.99
2022-12-23T05:36:19.871Z,6.96
2022-12-23T05:38:46.341Z,6.98
2022-12-23T05:41:12.765Z,6.98
2022-12-23T05:43:39.286Z,7.00
2022-12-23T05:46:05.824Z,6.98
2022-12-23T05:48:32.359Z,6.97
2022-12-23T05:50:58.872Z,6.95
2022-12-23T05:53:25.532Z,6.92
2022-12-23T05:55:52.015Z,6.94
2022-12-23T05:58:18.538Z,6.93
2022-12-23T06:00:45.039Z,6.92
2022-12-23T06:03:11.723Z,6.90
2022-12-23T06:05:39.805Z,6.88
2022-12-23T06:08:06.337Z,6.88
2022-12-23T06:10:32.795Z,6.85
2022-12-23T06:12:59.299Z,6.85
2022-12-23T06:15:26.073Z,6.84
2022-12-23T06:17:52.545Z,6.83
2022-12-23T06:20:20.915Z,6.79
2022-12-23T06:22:47.764Z,6.78
2022-12-23T06:25:14.255Z,6.79
2022-12-23T06:27:40.733Z,6.76
2022-12-23T06:30:07.993Z,6.76
2022-12-23T06:32:38.252Z,6.80
2022-12-23T06:35:09.169Z,6.76
2022-12-23T06:37:35.769Z,6.78
2022-12-23T06:40:02.213Z,6.76
2022-12-23T06:42:28.724Z,6.78
2022-12-23T06:44:55.218Z,6.75
2022-12-23T06:47:21.708Z,6.76
2022-12-23T06:49:48.173Z,6.74
2022-12-23T06:52:14.623Z,6.75
2022-12-23T06:54:41.115Z,6.71
2022-12-23T06:57:07.584Z,6.71
2022-12-23T06:59:34.006Z,6.72
2022-12-23T07:02:00.692Z,6.68
2022-12-23T07:04:27.275Z,6.71
2022-12-23T07:06:53.754Z,6.69
2022-12-23T07:09:20.218Z,6.69
2022-12-23T07:11:46.702Z,6.68
2022-12-23T07:14:13.184Z,6.67
2022-12-23T07:16:39.713Z,6.67
2022-12-23T07:19:06.401Z,6.67
2022-12-23T07:21:32.863Z,6.67
2022-12-23T07:23:59.326Z,6.64
2022-12-23T07:26:25.857Z,6.69
2022-12-23T07:28:52.285Z,6.70
2022-12-23T07:31:18.801Z,6.72
2022-12-23T07:33:45.318Z,6.72
2022-12-23T07:36:11.818Z,6.69
2022-12-23T07:38:38.260Z,6.74
2022-12-23T07:41:04.965Z,6.72
2022-12-23T07:43:31.396Z,6.71
2022-12-23T07:46:00.676Z,6.75
2022-12-23T07:48:27.958Z,6.74
2022-12-23T07:51:00.420Z,6.75
2022-12-23T07:53:26.909Z,6.76
2022-12-23T07:55:56.557Z,6.76
2022-12-23T07:58:23.826Z,6.77
2022-12-23T08:00:50.310Z,6.79
2022-12-23T08:03:17.394Z,6.79
2022-12-23T08:05:44.049Z,6.78
2022-12-23T08:08:10.531Z,6.83
2022-12-23T08:10:40.260Z,6.85
2022-12-23T08:13:09.323Z,6.87
2022-12-23T08:15:35.771Z,6.86
2022-12-23T08:18:02.215Z,6.85
2022-12-23T08:20:28.693Z,6.85
2022-12-23T08:22:55.190Z,6.79
2022-12-23T08:25:21.691Z,6.83
2022-12-23T08:27:48.134Z,6.84
2022-12-23T08:30:14.708Z,6.80
2022-12-23T08:32:41.144Z,6.82
2022-12-23T08:35:08.056Z,6.79
2022-12-23T08:37:34.471Z,6.78
2022-12-23T08:40:00.958Z,6.76
2022-12-23T08:42:27.388Z,6.75
2022-12-23T08:44:53.897Z,6.72
2022-12-23T08:47:20.313Z,6.71
2022-12-23T08:49:47.957Z,6.67
2022-12-23T08:52:14.409Z,6.67
2022-12-23T08:54:40.846Z,6.66
2022-12-23T08:57:07.301Z,6.66
2022-12-23T08:59:33.791Z,6.66
2022-12-23T09:02:00.282Z,6.66
2022-12-23T09:04:26.802Z,6.63
2022-12-23T09:06:53.281Z,6.62
2022-12-23T09:09:19.727Z,6.64
2022-12-23T09:11:46.156Z,6.63
2022-12-23T09:14:14.027Z,6.62
2022-12-23T09:16:40.658Z,6.60
2022-12-23T09:19:07.291Z,6.58
2022-12-23T09:21:33.848Z,6.55
2022-12-23T09:24:00.327Z,6.57
2022-12-23T09:26:29.348Z,6.58
2022-12-23T09:28:56.362Z,6.58
2022-12-23T09:31:23.989Z,6.58
2022-12-23T09:33:53.072Z,6.54
2022-12-23T09:36:20.575Z,6.59
2022-12-23T09:38:47.067Z,6.61
2022-12-23T09:41:32.075Z,6.59
2022-12-23T09:44:23.215Z,6.58
2022-12-23T09:46:54.763Z,6.55
2022-12-23T09:49:22.176Z,6.62
2022-12-23T09:51:50.590Z,6.61
2022-12-23T09:54:28.601Z,6.56
2022-12-23T09:57:04.974Z,6.59
2022-12-23T09:59:58.592Z,6.62
2022-12-23T10:02:35.782Z,6.55
2022-12-23T10:05:32.630Z,6.62
2022-12-23T10:08:03.855Z,6.63
2022-12-23T10:10:39.511Z,6.59
2022-12-23T10:13:11.531Z,6.64
2022-12-23T10:15:42.933Z,6.69
2022-12-23T10:18:22.415Z,6.68
2022-12-23T10:20:57.034Z,6.72
2022-12-23T10:23:36.401Z,6.72
2022-12-23T10:26:12.331Z,6.81
2022-12-23T10:28:38.792Z,6.83
2022-12-23T10:34:17.653Z,6.91
2022-12-23T10:36:53.323Z,6.99
2022-12-23T10:39:52.897Z,6.95
2022-12-23T10:42:24.402Z,7.11
2022-12-23T10:45:22.105Z,7.18
2022-12-23T10:48:15.044Z,7.22
2022-12-23T10:50:59.987Z,7.27
2022-12-23T10:53:33.553Z,7.37
2022-12-23T10:56:01.141Z,7.40
2022-12-23T10:58:27.771Z,7.41
2022-12-23T11:00:57.724Z,7.47
2022-12-23T11:03:31.251Z,7.50
2022-12-23T11:05:59.161Z,7.52
2022-12-23T11:08:28.994Z,7.56
2022-12-23T11:10:55.894Z,7.59
2022-12-23T11:13:40.515Z,7.58
2022-12-23T11:16:13.540Z,7.62
2022-12-23T11:18:53.078Z,7.64
2022-12-23T11:21:19.801Z,7.67
2022-12-23T11:23:46.405Z,7.65
2022-12-23T11:26:18.425Z,7.64
2022-12-23T11:28:51.083Z,7.65
2022-12-23T11:31:27.271Z,7.69
2022-12-23T11:34:02.016Z,7.68
2022-12-23T11:36:30.565Z,7.67
2022-12-23T11:39:14.212Z,7.70
2022-12-23T11:41:46.176Z,7.63
2022-12-23T11:44:32.466Z,7.66
2022-12-23T11:47:22.828Z,7.64
2022-12-23T11:49:54.758Z,7.63
2022-12-23T11:52:26.742Z,7.67
2022-12-23T11:54:55.920Z,7.63
2022-12-23T11:57:39.340Z,7.68
2022-12-23T12:00:16.536Z,7.69
2022-12-23T12:02:46.031Z,7.70
2022-12-23T12:05:15.431Z,7.71
2022-12-23T12:07:43.894Z,7.67
2022-12-23T12:10:18.131Z,7.71
2022-12-23T12:12:48.748Z,7.77
2022-12-23T12:15:43.193Z,7.79
2022-12-23T12:18:12.027Z,7.85
2022-12-23T12:20:59.904Z,7.87
2022-12-23T12:23:35.332Z,7.90
2022-12-23T12:26:13.035Z,7.85
2022-12-23T12:28:45.726Z,7.94
2022-12-23T12:31:26.552Z,7.95
2022-12-23T12:34:01.225Z,7.99
2022-12-23T12:36:58.479Z,8.02
2022-12-23T12:39:33.474Z,8.03
2022-12-23T12:42:19.409Z,8.06
2022-12-23T12:44:58.843Z,8.09
2022-12-23T12:50:29.709Z,8.15
2022-12-23T12:53:06.183Z,8.15
2022-12-23T12:55:37.165Z,8.19
2022-12-23T12:58:03.692Z,8.22
2022-12-23T13:00:46.056Z,8.22
2022-12-23T13:03:42.372Z,8.26
2022-12-23T13:06:40.813Z,8.27
2022-12-23T13:09:15.870Z,8.33
2022-12-23T13:11:55.822Z,8.36
2022-12-23T13:14:44.169Z,8.39
2022-12-23T13:17:24.592Z,8.43
2022-12-23T13:20:02.823Z,8.47
2022-12-23T13:22:33.864Z,8.48
2022-12-23T13:25:15.572Z,8.52
2022-12-23T13:27:51.072Z,8.57
2022-12-23T13:30:23.309Z,8.58
2022-12-23T13:32:52.549Z,8.63
2022-12-23T13:35:19.026Z,8.67
2022-12-23T13:38:08.473Z,8.65
2022-12-23T13:40:40.993Z,8.73
2022-12-23T13:43:46.775Z,8.82
2022-12-23T13:46:33.664Z,8.84
2022-12-23T13:49:12.596Z,8.90
2022-12-23T13:52:04.106Z,9.03
2022-12-23T13:54:42.496Z,9.11
2022-12-23T13:57:27.853Z,9.19
2022-12-23T14:00:22.083Z,9.25
2022-12-23T14:02:48.682Z,9.40
2022-12-23T14:05:32.280Z,9.48
2022-12-23T14:08:19.999Z,9.49
2022-12-23T14:11:03.781Z,9.61
2022-12-23T14:13:42.946Z,9.68
2022-12-23T14:16:27.988Z,9.75
2022-12-23T14:19:23.099Z,9.80
2022-12-23T14:22:04.150Z,9.86
2022-12-23T14:24:52.429Z,9.94
2022-12-23T14:27:30.912Z,10.02
2022-12-23T14:30:12.715Z,10.08
2022-12-23T14:32:45.474Z,10.13
2022-12-23T14:35:40.274Z,10.17
2022-12-23T14:38:14.941Z,10.21
2022-12-23T14:40:54.314Z,10.24
2022-12-23T14:43:23.689Z,10.27
2022-12-23T14:45:58.318Z,10.29
2022-12-23T14:48:33.900Z,10.33
2022-12-23T14:51:01.745Z,10.36
2022-12-23T14:53:32.498Z,10.38
2022-12-23T14:56:27.494Z,10.41
2022-12-23T14:59:12.173Z,10.43
2022-12-23T15:01:47.238Z,10.46
2022-12-23T15:04:13.659Z,10.46
2022-12-23T15:06:46.597Z,10.47
2022-12-23T15:09:22.237Z,10.46
2022-12-23T15:11:48.827Z,10.52
2022-12-23T15:14:28.663Z,10.47
2022-12-23T15:16:55.254Z,10.52
2022-12-23T15:19:24.270Z,10.51
2022-12-23T15:22:14.978Z,10.54
2022-12-23T15:24:46.320Z,10.52
2022-12-23T15:27:29.781Z,10.52
2022-12-23T15:29:57.404Z,10.51
2022-12-23T15:32:25.492Z,10.49
2022-12-23T15:34:54.725Z,10.45
2022-12-23T15:37:28.912Z,10.48
2022-12-23T15:40:03.354Z,10.46
2022-12-23T15:42:33.014Z,10.41
2022-12-23T15:44:59.453Z,10.44
2022-12-23T15:47:36.095Z,10.43
2022-12-23T15:50:11.670Z,10.44
2022-12-23T15:52:40.897Z,10.43
2022-12-23T15:55:15.023Z,10.42
2022-12-23T15:57:49.755Z,10.38
2022-12-23T16:00:20.641Z,10.42
2022-12-23T16:03:06.676Z,10.40
2022-12-23T16:05:37.940Z,10.36
2022-12-23T16:08:13.622Z,10.39
2022-12-23T16:10:40.725Z,10.40
2022-12-23T16:13:26.818Z,10.39
2022-12-23T16:15:53.374Z,10.40
2022-12-23T16:18:27.582Z,10.39
2022-12-23T16:21:01.358Z,10.41
2022-12-23T16:23:34.937Z,10.40
2022-12-23T16:26:02.452Z,10.37
2022-12-23T16:28:53.843Z,10.30
2022-12-23T16:31:21.611Z,10.37
2022-12-23T16:33:56.951Z,10.31
2022-12-23T16:36:26.243Z,10.33
2022-12-23T16:39:06.265Z,10.31
2022-12-23T16:41:33.766Z,10.29
2022-12-23T16:44:00.234Z,10.28
2022-12-23T16:46:27.553Z,10.26
2022-12-23T16:48:56.762Z,10.21
2022-12-23T16:51:23.515Z,10.18
2022-12-23T16:53:51.918Z,10.17
2022-12-23T16:56:20.465Z,10.14
2022-12-23T16:58:47.033Z,10.13
2022-12-23T17:01:16.541Z,10.02
2022-12-23T17:03:43.023Z,10.09
2022-12-23T17:06:14.880Z,10.01
2022-12-23T17:08:41.705Z,10.04
2022-12-23T17:11:24.274Z,9.95
2022-12-23T17:13:52.894Z,10.00
2022-12-23T17:16:22.577Z,9.98
2022-12-23T17:18:50.539Z,9.94
2022-12-23T17:21:21.483Z,9.86
2022-12-23T17:23:48.716Z,9.87
2022-12-23T17:26:15.134Z,9.82
2022-12-23T17:28:41.664Z,9.81
2022-12-23T17:31:14.209Z,9.77
2022-12-23T17:33:41.977Z,9.72
2022-12-23T17:36:10.902Z,9.64
2022-12-23T17:38:37.455Z,9.66
2022-12-23T17:41:04.360Z,9.63
2022-12-23T17:43:30.956Z,9.58
2022-12-23T17:45:57.471Z,9.57
2022-12-23T17:48:29.607Z,9.57
2022-12-23T17:50:57.757Z,9.52
2022-12-23T17:53:24.224Z,9.49
2022-12-23T17:55:50.636Z,9.46
2022-12-23T17:58:17.062Z,9.42
2022-12-23T18:00:43.572Z,9.42
2022-12-23T18:03:22.370Z,9.37
2022-12-23T18:05:49.024Z,9.40
2022-12-23T18:08:15.479Z,9.38
2022-12-23T18:10:42.030Z,9.37
2022-12-23T18:13:15.516Z,9.29
2022-12-23T18:15:43.790Z,9.35
2022-12-23T18:18:28.558Z,9.26
2022-12-23T18:20:59.704Z,9.28
2022-12-23T18:23:28.665Z,9.27
2022-12-23T18:25:56.644Z,9.26
2022-12-23T18:28:24.099Z,9.24
2022-12-23T18:30:56.130Z,9.23
2022-12-23T18:33:22.876Z,9.22
2022-12-23T18:35:50.365Z,9.21
2022-12-23T18:38:17.819Z,9.16
2022-12-23T18:40:44.788Z,9.15
2022-12-23T18:43:20.025Z,9.12
2022-12-23T18:45:52.402Z,9.10
2022-12-23T18:48:20.174Z,9.06
2022-12-23T18:50:46.941Z,9.01
2022-12-23T18:53:23.809Z,9.04
2022-12-23T18:55:52.475Z,9.01
2022-12-23T18:58:19.253Z,8.97
2022-12-23T19:00:46.470Z,8.96
2022-12-23T19:03:26.712Z,8.92
2022-12-23T19:05:54.723Z,8.91
2022-12-23T19:08:26.812Z,8.87
2022-12-23T19:10:54.604Z,8.88
2022-12-23T19:13:21.664Z,8.87
2022-12-23T19:15:48.224Z,8.83
2022-12-23T19:18:16.751Z,8.76
2022-12-23T19:20:45.033Z,8.80
2022-12-23T19:23:12.671Z,8.76
2022-12-23T19:25:52.695Z,8.72
2022-12-23T19:28:22.226Z,8.71
2022-12-23T19:30:48.869Z,8.67
2022-12-23T19:33:15.558Z,8.62
2022-12-23T19:35:42.439Z,8.57
2022-12-23T19:38:09.168Z,8.56
2022-12-23T19:40:35.766Z,8.52
2022-12-23T19:43:02.519Z,8.50
2022-12-23T19:45:29.246Z,8.48
2022-12-23T19:47:55.723Z,8.46
2022-12-23T19:50:22.215Z,8.44
2022-12-23T19:52:48.839Z,8.44
2022-12-23T19:55:15.690Z,8.42
2022-12-23T19:57:42.202Z,8.41
2022-12-23T20:00:09.445Z,8.37
2022-12-23T20:02:41.588Z,8.35
2022-12-23T20:05:08.461Z,8.36
2022-12-23T20:07:35.715Z,8.34
2022-12-23T20:10:02.829Z,8.31
2022-12-23T20:12:29.335Z,8.33
2022-12-23T20:14:55.798Z,8.33
2022-12-23T20:17:22.294Z,8.33
2022-12-23T20:19:50.026Z,8.31
2022-12-23T20:22:16.546Z,8.31
2022-12-23T20:24:42.969Z,8.30
2022-12-23T20:27:11.707Z,8.29
2022-12-23T20:29:39.688Z,8.31
2022-12-23T20:32:06.161Z,8.31
2022-12-23T20:34:38.611Z,8.29
2022-12-23T20:37:06.181Z,8.30
2022-12-23T20:39:32.609Z,8.30
2022-12-23T20:41:59.029Z,8.30
2022-12-23T20:44:35.010Z,8.23
2022-12-23T20:47:02.825Z,8.27
2022-12-23T20:49:29.422Z,8.25
2022-12-23T20:51:55.975Z,8.26
2022-12-23T20:54:27.913Z,8.25
2022-12-23T20:56:58.699Z,8.24
2022-12-23T20:59:25.146Z,8.24
2022-12-23T21:01:51.682Z,8.22
2022-12-23T21:04:18.326Z,8.20
2022-12-23T21:06:44.811Z,8.21
2022-12-23T21:09:13.954Z,8.17
2022-12-23T21:11:43.285Z,8.17
2022-12-23T21:14:10.488Z,8.15
2022-12-23T21:16:37.776Z,8.16
2022-12-23T21:19:06.024Z,8.10
2022-12-23T21:21:32.532Z,8.14
2022-12-23T21:24:01.795Z,8.08
2022-12-23T21:26:29.924Z,8.13
2022-12-23T21:28:59.053Z,8.07
2022-12-23T21:31:26.787Z,8.13
2022-12-23T21:33:53.401Z,8.10
2022-12-23T21:36:22.608Z,8.07
2022-12-23T21:38:50.290Z,8.10
2022-12-23T21:41:27.893Z,8.07
2022-12-23T21:43:56.720Z,8.01
2022-12-23T21:46:23.850Z,8.05
2022-12-23T21:48:51.307Z,8.02
2022-12-23T21:51:20.973Z,7.96
2022-12-23T21:53:50.051Z,7.94
2022-12-23T21:56:19.220Z,7.95
2022-12-23T21:58:46.215Z,7.96
2022-12-23T22:01:18.516Z,7.96
2022-12-23T22:03:47.426Z,7.96
2022-12-23T22:06:17.803Z,7.95
2022-12-23T22:08:44.651Z,7.96
2022-12-23T22:11:16.854Z,7.96
2022-12-23T22:13:44.443Z,8.02
2022-12-23T22:16:13.148Z,8.05
2022-12-23T22:18:40.024Z,8.05
2022-12-23T22:21:08.760Z,8.01
2022-12-23T22:23:36.430Z,8.07
2022-12-23T22:26:02.950Z,8.05
2022-12-23T22:28:31.956Z,8.09
2022-12-23T22:31:06.582Z,8.10
2022-12-23T22:33:34.054Z,8.11
2022-12-23T22:36:00.756Z,8.08
2022-12-23T22:38:27.348Z,8.12
2022-12-23T22:40:53.919Z,8.12
2022-12-23T22:43:20.426Z,8.13
2022-12-23T22:45:47.052Z,8.13
2022-12-23T22:48:13.684Z,8.13
2022-12-23T22:50:40.207Z,8.12
2022-12-23T22:53:06.795Z,8.16
2022-12-23T22:55:33.302Z,8.17
2022-12-23T22:57:59.703Z,8.18
2022-12-23T23:00:26.174Z,8.19
2022-12-23T23:02:52.609Z,8.20
2022-12-23T23:05:19.778Z,8.23
2022-12-23T23:07:46.240Z,8.23
2022-12-23T23:10:13.088Z,8.21
2022-12-23T23:12:39.512Z,8.29
2022-12-23T23:15:06.629Z,8.31
2022-12-23T23:17:33.102Z,8.31
2022-12-23T23:19:59.564Z,8.28
2022-12-23T23:22:26.051Z,8.31
2022-12-23T23:24:52.875Z,8.32
2022-12-23T23:27:19.376Z,8.32
2022-12-23T23:29:45.913Z,8.31
2022-12-23T23:32:12.479Z,8.31
2022-12-23T23:34:38.963Z,8.29
2022-12-23T23:37:05.418Z,8.25
2022-12-23T23:39:32.199Z,8.21
2022-12-23T23:41:58.740Z,8.18
2022-12-23T23:44:25.245Z,8.14
2022-12-23T23:46:51.667Z,8.11
2022-12-23T23:49:18.147Z,8.09
2022-12-23T23:51:44.627Z,8.06
2022-12-23T23:54:11.142Z,8.05
2022-12-23T23:56:39.399Z,8.01
2022-12-23T23:59:07.189Z,8.01
